createdAt,value
2015-11-15T00:00:03.851Z,-2.64
2015-11-15T00:00:16.244Z,-2.68
2015-11-15T00:00:28.619Z,-2.67
2015-11-15T00:00:40.838Z,-2.61
2015-11-15T00:00:53.197Z,-2.65
2015-11-15T00:01:05.557Z,-2.75
2015-11-15T00:01:17.935Z,-2.62
2015-11-15T00:01:30.310Z,-2.65
2015-11-15T00:01:42.653Z,-2.72
2015-11-15T00:01:55.013Z,-2.7
2015-11-15T00:02:07.372Z,-2.61
2015-11-15T00:02:19.734Z,-2.64
2015-11-15T00:02:32.077Z,-2.75
2015-11-15T00:02:43.718Z,-2.65
2015-11-15T00:02:56.077Z,-2.62
2015-11-15T00:03:08.437Z,-2.75
2015-11-15T00:03:20.112Z,-2.67
2015-11-15T00:03:32.487Z,-2.72
2015-11-15T00:03:44.862Z,-2.68
2015-11-15T00:03:57.221Z,-2.75
2015-11-15T00:04:09.596Z,-2.78
2015-11-15T00:04:21.958Z,-2.68
2015-11-15T00:04:34.318Z,-2.68
2015-11-15T00:04:45.958Z,-2.67
2015-11-15T00:04:58.333Z,-2.75
2015-11-15T00:05:10.708Z,-2.7
2015-11-15T00:05:22.930Z,-2.65
2015-11-15T00:05:35.321Z,-2.73
2015-11-15T00:05:47.680Z,-2.68
2015-11-15T00:06:00.055Z,-2.68
2015-11-15T00:06:12.414Z,-2.76
2015-11-15T00:06:24.777Z,-2.73
2015-11-15T00:06:37.136Z,-2.7
2015-11-15T00:06:49.511Z,-2.72
2015-11-15T00:07:01.871Z,-2.72
2015-11-15T00:07:14.230Z,-2.79
2015-11-15T00:07:26.608Z,-2.75
2015-11-15T00:07:38.999Z,-2.79
2015-11-15T00:07:51.374Z,-2.76
2015-11-15T00:08:03.733Z,-2.72
2015-11-15T00:08:16.108Z,-2.75
2015-11-15T00:08:28.469Z,-2.76
2015-11-15T00:08:40.829Z,-2.76
2015-11-15T00:08:53.188Z,-2.78
2015-11-15T00:09:05.547Z,-2.78
2015-11-15T00:09:17.907Z,-2.81
2015-11-15T00:09:30.300Z,-2.78
2015-11-15T00:09:42.675Z,-2.76
2015-11-15T00:09:55.050Z,-2.83
2015-11-15T00:10:07.425Z,-2.83
2015-11-15T00:10:19.800Z,-2.83
2015-11-15T00:10:32.163Z,-2.75
2015-11-15T00:10:44.366Z,-2.79
2015-11-15T00:10:56.741Z,-2.85
2015-11-15T00:11:09.100Z,-2.83
2015-11-15T00:11:20.757Z,-2.83
2015-11-15T00:11:33.134Z,-2.82
2015-11-15T00:11:45.509Z,-2.91
2015-11-15T00:11:57.899Z,-2.9
2015-11-15T00:12:10.259Z,-2.9
2015-11-15T00:12:22.634Z,-2.83
2015-11-15T00:12:34.980Z,-2.9
2015-11-15T00:12:47.340Z,-2.96
2015-11-15T00:12:59.699Z,-2.88
2015-11-15T00:13:12.058Z,-2.96
2015-11-15T00:13:24.433Z,-2.93
2015-11-15T00:13:36.796Z,-2.96
2015-11-15T00:13:49.171Z,-2.96
2015-11-15T00:14:01.561Z,-2.85
2015-11-15T00:14:13.936Z,-2.96
2015-11-15T00:14:26.311Z,-2.91
2015-11-15T00:14:38.689Z,-2.9
2015-11-15T00:14:51.049Z,-2.91
2015-11-15T00:15:03.408Z,-2.97
2015-11-15T00:15:15.783Z,-2.85
2015-11-15T00:15:28.127Z,-3
2015-11-15T00:15:40.505Z,-2.99
2015-11-15T00:15:52.880Z,-3
2015-11-15T00:16:05.255Z,-2.97
2015-11-15T00:16:17.630Z,-2.91
2015-11-15T00:16:29.989Z,-2.96
2015-11-15T00:16:42.351Z,-2.94
2015-11-15T00:16:54.726Z,-2.93
2015-11-15T00:17:07.085Z,-2.94
2015-11-15T00:17:19.444Z,-2.94
2015-11-15T00:17:31.804Z,-2.88
2015-11-15T00:17:44.182Z,-2.93
2015-11-15T00:17:56.557Z,-2.93
2015-11-15T00:18:08.932Z,-2.91
2015-11-15T00:18:21.322Z,-2.96
2015-11-15T00:18:33.682Z,-2.99
2015-11-15T00:18:46.044Z,-2.97
2015-11-15T00:18:58.419Z,-2.96
2015-11-15T00:19:10.779Z,-2.88
2015-11-15T00:19:23.138Z,-2.94
2015-11-15T00:19:35.497Z,-2.88
2015-11-15T00:19:47.859Z,-2.93
2015-11-15T00:20:00.234Z,-2.96
2015-11-15T00:20:12.609Z,-2.83
2015-11-15T00:20:24.999Z,-2.88
2015-11-15T00:20:37.359Z,-3.01
2015-11-15T00:20:49.721Z,-2.96
2015-11-15T00:21:02.080Z,-2.88
2015-11-15T00:21:14.455Z,-2.94
2015-11-15T00:21:26.815Z,-2.93
2015-11-15T00:21:39.174Z,-2.93
2015-11-15T00:21:51.552Z,-2.97
2015-11-15T00:22:03.943Z,-2.88
2015-11-15T00:22:16.318Z,-2.96
2015-11-15T00:22:28.708Z,-2.91
2015-11-15T00:22:41.068Z,-2.97
2015-11-15T00:22:53.274Z,-2.83
2015-11-15T00:23:05.649Z,-2.91
2015-11-15T00:23:18.008Z,-2.96
2015-11-15T00:23:30.368Z,-2.97
2015-11-15T00:23:42.711Z,-2.94
2015-11-15T00:23:55.089Z,-2.9
2015-11-15T00:24:07.464Z,-2.85
2015-11-15T00:24:19.839Z,-2.91
2015-11-15T00:24:32.230Z,-2.81
2015-11-15T00:24:44.589Z,-2.94
2015-11-15T00:24:56.966Z,-2.85
2015-11-15T00:25:09.326Z,-2.99
2015-11-15T00:25:21.685Z,-2.88
2015-11-15T00:25:34.060Z,-2.99
2015-11-15T00:25:46.404Z,-2.93
2015-11-15T00:25:58.782Z,-2.9
2015-11-15T00:26:11.157Z,-2.85
2015-11-15T00:26:23.548Z,-2.85
2015-11-15T00:26:35.907Z,-2.83
2015-11-15T00:26:48.282Z,-2.82
2015-11-15T00:27:00.643Z,-2.94
2015-11-15T00:27:13.003Z,-2.86
2015-11-15T00:27:25.362Z,-2.81
2015-11-15T00:27:37.018Z,-2.96
2015-11-15T00:27:49.378Z,-2.88
2015-11-15T00:28:01.757Z,-2.79
2015-11-15T00:28:14.132Z,-2.9
2015-11-15T00:28:25.788Z,-2.9
2015-11-15T00:28:38.163Z,-2.86
2015-11-15T00:28:50.522Z,-2.88
2015-11-15T00:29:02.181Z,-2.83
2015-11-15T00:29:14.540Z,-2.88
2015-11-15T00:29:26.899Z,-2.86
2015-11-15T00:29:39.259Z,-2.85
2015-11-15T00:29:51.634Z,-2.94
2015-11-15T00:30:04.012Z,-2.86
2015-11-15T00:30:16.387Z,-2.76
2015-11-15T00:30:28.762Z,-2.83
2015-11-15T00:30:41.137Z,-2.86
2015-11-15T00:30:53.590Z,-2.83
2015-11-15T00:31:05.951Z,-2.88
2015-11-15T00:31:18.326Z,-2.88
2015-11-15T00:31:30.686Z,-2.83
2015-11-15T00:31:43.107Z,-2.88
2015-11-15T00:31:55.311Z,-2.88
2015-11-15T00:32:07.674Z,-2.85
2015-11-15T00:32:20.049Z,-2.88
2015-11-15T00:32:32.440Z,-2.9
2015-11-15T00:32:44.111Z,-2.9
2015-11-15T00:32:56.471Z,-2.86
2015-11-15T00:33:08.832Z,-2.83
2015-11-15T00:33:21.223Z,-2.83
2015-11-15T00:33:33.582Z,-2.88
2015-11-15T00:33:45.942Z,-2.79
2015-11-15T00:33:58.317Z,-2.91
2015-11-15T00:34:10.679Z,-2.85
2015-11-15T00:34:23.054Z,-2.79
2015-11-15T00:34:35.429Z,-2.9
2015-11-15T00:34:47.820Z,-2.83
2015-11-15T00:35:00.179Z,-2.82
2015-11-15T00:35:12.557Z,-2.81
2015-11-15T00:35:24.916Z,-2.83
2015-11-15T00:35:37.276Z,-2.82
2015-11-15T00:35:49.635Z,-2.78
2015-11-15T00:36:02.010Z,-2.79
2015-11-15T00:36:14.372Z,-2.78
2015-11-15T00:36:26.716Z,-2.79
2015-11-15T00:36:39.076Z,-2.79
2015-11-15T00:36:51.451Z,-2.81
2015-11-15T00:37:03.810Z,-2.82
2015-11-15T00:37:16.156Z,-2.82
2015-11-15T00:37:28.515Z,-2.85
2015-11-15T00:37:40.874Z,-2.85
2015-11-15T00:37:53.249Z,-2.82
2015-11-15T00:38:05.609Z,-2.82
2015-11-15T00:38:17.971Z,-2.78
2015-11-15T00:38:30.331Z,-2.83
2015-11-15T00:38:42.706Z,-2.81
2015-11-15T00:38:55.081Z,-2.81
2015-11-15T00:39:07.456Z,-2.81
2015-11-15T00:39:19.818Z,-2.73
2015-11-15T00:39:32.177Z,-2.83
2015-11-15T00:39:44.537Z,-2.76
2015-11-15T00:39:56.896Z,-2.81
2015-11-15T00:40:08.552Z,-2.81
2015-11-15T00:40:20.915Z,-2.79
2015-11-15T00:40:33.290Z,-2.78
2015-11-15T00:40:45.665Z,-2.78
2015-11-15T00:40:58.040Z,-2.76
2015-11-15T00:41:10.430Z,-2.79
2015-11-15T00:41:22.792Z,-2.78
2015-11-15T00:41:34.448Z,-2.78
2015-11-15T00:41:46.792Z,-2.78
2015-11-15T00:41:59.167Z,-2.79
2015-11-15T00:42:11.510Z,-2.78
2015-11-15T00:42:23.888Z,-2.79
2015-11-15T00:42:36.248Z,-2.78
2015-11-15T00:42:48.670Z,-2.79
2015-11-15T00:43:01.045Z,-2.68
2015-11-15T00:43:13.420Z,-2.7
2015-11-15T00:43:25.798Z,-2.76
2015-11-15T00:43:38.141Z,-2.78
2015-11-15T00:43:50.532Z,-2.78
2015-11-15T00:44:02.891Z,-2.73
2015-11-15T00:44:15.251Z,-2.76
2015-11-15T00:44:27.612Z,-2.7
2015-11-15T00:44:39.972Z,-2.7
2015-11-15T00:44:52.347Z,-2.72
2015-11-15T00:45:04.737Z,-2.73
2015-11-15T00:45:17.128Z,-2.75
2015-11-15T00:45:29.490Z,-2.76
2015-11-15T00:45:41.850Z,-2.78
2015-11-15T00:45:54.209Z,-2.78
2015-11-15T00:46:06.568Z,-2.75
2015-11-15T00:46:18.225Z,-2.73
2015-11-15T00:46:30.587Z,-2.76
2015-11-15T00:46:42.962Z,-2.78
2015-11-15T00:46:55.337Z,-2.75
2015-11-15T00:47:07.743Z,-2.76
2015-11-15T00:47:20.103Z,-2.76
2015-11-15T00:47:32.465Z,-2.73
2015-11-15T00:47:44.840Z,-2.76
2015-11-15T00:47:57.199Z,-2.72
2015-11-15T00:48:09.559Z,-2.78
2015-11-15T00:48:21.918Z,-2.75
2015-11-15T00:48:34.279Z,-2.65
2015-11-15T00:48:46.654Z,-2.76
2015-11-15T00:48:59.061Z,-2.78
2015-11-15T00:49:11.451Z,-2.79
2015-11-15T00:49:23.811Z,-2.67
2015-11-15T00:49:36.174Z,-2.7
2015-11-15T00:49:48.533Z,-2.72
2015-11-15T00:50:00.893Z,-2.78
2015-11-15T00:50:13.252Z,-2.76
2015-11-15T00:50:25.627Z,-2.7
2015-11-15T00:50:37.989Z,-2.78
2015-11-15T00:50:50.364Z,-2.79
2015-11-15T00:51:02.739Z,-2.79
2015-11-15T00:51:15.129Z,-2.7
2015-11-15T00:51:27.504Z,-2.72
2015-11-15T00:51:39.867Z,-2.78
2015-11-15T00:51:52.242Z,-2.76
2015-11-15T00:52:04.632Z,-2.78
2015-11-15T00:52:16.288Z,-2.73
2015-11-15T00:52:28.648Z,-2.72
2015-11-15T00:52:41.025Z,-2.76
2015-11-15T00:52:53.384Z,-2.72
2015-11-15T00:53:05.775Z,-2.81
2015-11-15T00:53:18.181Z,-2.78
2015-11-15T00:53:30.556Z,-2.73
2015-11-15T00:53:42.934Z,-2.79
2015-11-15T00:53:55.309Z,-2.81
2015-11-15T00:54:07.668Z,-2.79
2015-11-15T00:54:20.028Z,-2.79
2015-11-15T00:54:32.406Z,-2.81
2015-11-15T00:54:44.750Z,-2.81
2015-11-15T00:54:57.125Z,-2.82
2015-11-15T00:55:09.500Z,-2.82
2015-11-15T00:55:21.906Z,-2.79
2015-11-15T00:55:34.283Z,-2.78
2015-11-15T00:55:46.658Z,-2.78
2015-11-15T00:55:59.017Z,-2.85
2015-11-15T00:56:10.673Z,-2.78
2015-11-15T00:56:22.314Z,-2.78
2015-11-15T00:56:34.676Z,-2.85
2015-11-15T00:56:47.036Z,-2.79
2015-11-15T00:56:59.411Z,-2.81
2015-11-15T00:57:11.786Z,-2.82
2015-11-15T00:57:24.176Z,-2.82
2015-11-15T00:57:36.570Z,-2.85
2015-11-15T00:57:48.945Z,-2.88
2015-11-15T00:58:01.304Z,-2.79
2015-11-15T00:58:13.664Z,-2.81
2015-11-15T00:58:26.039Z,-2.86
2015-11-15T00:58:38.401Z,-2.79
2015-11-15T00:58:50.761Z,-2.82
2015-11-15T00:59:03.136Z,-2.83
2015-11-15T00:59:15.526Z,-2.75
2015-11-15T00:59:27.901Z,-2.81
2015-11-15T00:59:40.279Z,-2.76
2015-11-15T00:59:52.639Z,-2.9
2015-11-15T01:00:05.014Z,-2.78
2015-11-15T01:00:17.357Z,-2.83
2015-11-15T01:00:29.732Z,-2.82
2015-11-15T01:00:42.078Z,-2.78
2015-11-15T01:00:54.437Z,-2.86
2015-11-15T01:01:06.797Z,-2.86
2015-11-15T01:01:19.172Z,-2.81
2015-11-15T01:01:31.562Z,-2.88
2015-11-15T01:01:43.940Z,-2.88
2015-11-15T01:01:56.300Z,-2.97
2015-11-15T01:02:08.675Z,-2.85
2015-11-15T01:02:21.034Z,-2.99
2015-11-15T01:02:33.409Z,-2.91
2015-11-15T01:02:45.772Z,-2.93
2015-11-15T01:02:58.131Z,-2.97
2015-11-15T01:03:10.490Z,-2.88
2015-11-15T01:03:22.865Z,-2.93
2015-11-15T01:03:35.240Z,-3.04
2015-11-15T01:03:47.634Z,-2.88
2015-11-15T01:03:59.993Z,-2.91
2015-11-15T01:04:12.353Z,-2.93
2015-11-15T01:04:24.712Z,-2.97
2015-11-15T01:04:37.087Z,-2.96
2015-11-15T01:04:49.448Z,-2.94
2015-11-15T01:05:01.808Z,-2.9
2015-11-15T01:05:14.167Z,-2.93
2015-11-15T01:05:26.542Z,-2.94
2015-11-15T01:05:38.933Z,-2.94
2015-11-15T01:05:51.326Z,-2.93
2015-11-15T01:06:03.686Z,-2.93
2015-11-15T01:06:16.045Z,-2.99
2015-11-15T01:06:28.436Z,-3
2015-11-15T01:06:40.780Z,-2.97
2015-11-15T01:06:52.439Z,-2.96
2015-11-15T01:07:04.798Z,-3.07
2015-11-15T01:07:17.158Z,-2.91
2015-11-15T01:07:29.533Z,-2.96
2015-11-15T01:07:41.908Z,-3.03
2015-11-15T01:07:54.285Z,-3.01
2015-11-15T01:08:06.660Z,-2.97
2015-11-15T01:08:19.019Z,-3.03
2015-11-15T01:08:31.394Z,-2.99
2015-11-15T01:08:43.738Z,-3.04
2015-11-15T01:08:56.100Z,-3.01
2015-11-15T01:09:07.756Z,-3
2015-11-15T01:09:20.131Z,-2.99
2015-11-15T01:09:32.491Z,-2.99
2015-11-15T01:09:44.881Z,-3.06
2015-11-15T01:09:57.259Z,-3
2015-11-15T01:10:09.619Z,-3.11
2015-11-15T01:10:21.978Z,-3.01
2015-11-15T01:10:34.337Z,-3.03
2015-11-15T01:10:46.697Z,-3.17
2015-11-15T01:10:59.059Z,-3.14
2015-11-15T01:11:11.403Z,-3.11
2015-11-15T01:11:23.762Z,-3.14
2015-11-15T01:11:36.122Z,-3.18
2015-11-15T01:11:48.497Z,-3.07
2015-11-15T01:12:00.875Z,-3.07
2015-11-15T01:12:13.250Z,-3.12
2015-11-15T01:12:25.593Z,-3.12
2015-11-15T01:12:37.953Z,-3.11
2015-11-15T01:12:50.312Z,-3.07
2015-11-15T01:13:02.689Z,-3.12
2015-11-15T01:13:15.049Z,-3.12
2015-11-15T01:13:27.424Z,-3.17
2015-11-15T01:13:39.799Z,-3.14
2015-11-15T01:13:52.189Z,-3.15
2015-11-15T01:14:04.584Z,-3.21
2015-11-15T01:14:16.943Z,-3.12
2015-11-15T01:14:29.318Z,-3.14
2015-11-15T01:14:41.678Z,-3.21
2015-11-15T01:14:54.037Z,-3.12
2015-11-15T01:15:06.398Z,-3.15
2015-11-15T01:15:18.789Z,-3.19
2015-11-15T01:15:30.992Z,-3.14
2015-11-15T01:15:43.367Z,-3.15
2015-11-15T01:15:55.758Z,-3.17
2015-11-15T01:16:08.151Z,-3.14
2015-11-15T01:16:20.511Z,-3.15
2015-11-15T01:16:32.870Z,-3.14
2015-11-15T01:16:45.229Z,-3.17
2015-11-15T01:16:57.604Z,-3.12
2015-11-15T01:17:09.966Z,-3.14
2015-11-15T01:17:22.325Z,-3.18
2015-11-15T01:17:34.700Z,-3.24
2015-11-15T01:17:47.091Z,-3.19
2015-11-15T01:17:59.325Z,-3.19
2015-11-15T01:18:11.704Z,-3.11
2015-11-15T01:18:24.079Z,-3.17
2015-11-15T01:18:36.439Z,-3.09
2015-11-15T01:18:48.798Z,-3.12
2015-11-15T01:19:01.173Z,-3.09
2015-11-15T01:19:13.535Z,-3.09
2015-11-15T01:19:25.895Z,-3.07
2015-11-15T01:19:38.254Z,-3.09
2015-11-15T01:19:50.629Z,-3.11
2015-11-15T01:20:03.020Z,-3.09
2015-11-15T01:20:15.428Z,-3.15
2015-11-15T01:20:27.803Z,-3.09
2015-11-15T01:20:40.178Z,-3.18
2015-11-15T01:20:52.537Z,-3
2015-11-15T01:21:04.897Z,-3.06
2015-11-15T01:21:17.258Z,-2.96
2015-11-15T01:21:29.633Z,-3.04
2015-11-15T01:21:41.977Z,-3.01
2015-11-15T01:21:54.352Z,-2.94
2015-11-15T01:22:06.727Z,-3.03
2015-11-15T01:22:19.120Z,-3
2015-11-15T01:22:31.495Z,-2.93
2015-11-15T01:22:43.855Z,-2.96
2015-11-15T01:22:56.214Z,-2.9
2015-11-15T01:23:08.589Z,-2.91
2015-11-15T01:23:20.952Z,-2.96
2015-11-15T01:23:33.311Z,-2.93
2015-11-15T01:23:45.670Z,-2.97
2015-11-15T01:23:58.045Z,-2.99
2015-11-15T01:24:10.420Z,-3.01
2015-11-15T01:24:22.798Z,-2.91
2015-11-15T01:24:35.189Z,-2.93
2015-11-15T01:24:47.548Z,-2.97
2015-11-15T01:24:59.908Z,-2.83
2015-11-15T01:25:12.267Z,-2.88
2015-11-15T01:25:24.629Z,-2.83
2015-11-15T01:25:37.004Z,-2.99
2015-11-15T01:25:49.348Z,-2.85
2015-11-15T01:26:01.723Z,-2.88
2015-11-15T01:26:14.114Z,-2.85
2015-11-15T01:26:26.506Z,-2.9
2015-11-15T01:26:38.866Z,-2.85
2015-11-15T01:26:51.225Z,-2.86
2015-11-15T01:27:03.585Z,-2.83
2015-11-15T01:27:15.960Z,-2.9
2015-11-15T01:27:28.322Z,-2.73
2015-11-15T01:27:40.681Z,-2.88
2015-11-15T01:27:53.025Z,-2.78
2015-11-15T01:28:05.400Z,-2.78
2015-11-15T01:28:17.775Z,-2.79
2015-11-15T01:28:29.450Z,-2.79
2015-11-15T01:28:41.825Z,-2.76
2015-11-15T01:28:54.184Z,-2.76
2015-11-15T01:29:06.559Z,-2.7
2015-11-15T01:29:18.919Z,-2.72
2015-11-15T01:29:31.297Z,-2.64
2015-11-15T01:29:43.656Z,-2.73
2015-11-15T01:29:56.015Z,-2.68
2015-11-15T01:30:08.390Z,-2.76
2015-11-15T01:30:20.781Z,-2.67
2015-11-15T01:30:33.143Z,-2.61
2015-11-15T01:30:45.518Z,-2.79
2015-11-15T01:30:57.862Z,-2.73
2015-11-15T01:31:10.237Z,-2.73
2015-11-15T01:31:22.612Z,-2.67
2015-11-15T01:31:34.959Z,-2.7
2015-11-15T01:31:47.318Z,-2.61
2015-11-15T01:31:59.678Z,-2.65
2015-11-15T01:32:12.053Z,-2.67
2015-11-15T01:32:24.443Z,-2.79
2015-11-15T01:32:36.820Z,-2.65
2015-11-15T01:32:49.227Z,-2.73
2015-11-15T01:33:01.586Z,-2.76
2015-11-15T01:33:13.945Z,-2.68
2015-11-15T01:33:26.320Z,-2.68
2015-11-15T01:33:38.683Z,-2.7
2015-11-15T01:33:51.042Z,-2.68
2015-11-15T01:34:03.417Z,-2.65
2015-11-15T01:34:15.792Z,-2.73
2015-11-15T01:34:28.183Z,-2.64
2015-11-15T01:34:40.561Z,-2.68
2015-11-15T01:34:52.936Z,-2.7
2015-11-15T01:35:05.295Z,-2.6
2015-11-15T01:35:17.654Z,-2.73
2015-11-15T01:35:30.014Z,-2.61
2015-11-15T01:35:42.375Z,-2.65
2015-11-15T01:35:54.735Z,-2.62
2015-11-15T01:36:07.110Z,-2.57
2015-11-15T01:36:19.469Z,-2.53
2015-11-15T01:36:31.844Z,-2.61
2015-11-15T01:36:44.238Z,-2.57
2015-11-15T01:36:56.597Z,-2.55
2015-11-15T01:37:08.956Z,-2.54
2015-11-15T01:37:21.347Z,-2.58
2015-11-15T01:37:33.708Z,-2.47
2015-11-15T01:37:46.068Z,-2.49
2015-11-15T01:37:58.443Z,-2.6
2015-11-15T01:38:10.786Z,-2.46
2015-11-15T01:38:23.161Z,-2.46
2015-11-15T01:38:35.539Z,-2.55
2015-11-15T01:38:47.930Z,-2.49
2015-11-15T01:39:00.321Z,-2.53
2015-11-15T01:39:12.680Z,-2.54
2015-11-15T01:39:25.039Z,-2.54
2015-11-15T01:39:37.402Z,-2.44
2015-11-15T01:39:49.761Z,-2.47
2015-11-15T01:40:02.136Z,-2.54
2015-11-15T01:40:14.496Z,-2.49
2015-11-15T01:40:26.871Z,-2.44
2015-11-15T01:40:39.233Z,-2.43
2015-11-15T01:40:51.592Z,-2.46
2015-11-15T01:41:03.967Z,-2.44
2015-11-15T01:41:16.342Z,-2.47
2015-11-15T01:41:28.733Z,-2.44
2015-11-15T01:41:41.111Z,-2.36
2015-11-15T01:41:53.470Z,-2.32
2015-11-15T01:42:05.845Z,-2.4
2015-11-15T01:42:18.205Z,-2.4
2015-11-15T01:42:30.564Z,-2.34
2015-11-15T01:42:42.942Z,-2.32
2015-11-15T01:42:55.301Z,-2.44
2015-11-15T01:43:07.661Z,-2.3
2015-11-15T01:43:20.036Z,-2.36
2015-11-15T01:43:31.692Z,-2.44
2015-11-15T01:43:44.085Z,-2.34
2015-11-15T01:43:56.444Z,-2.37
2015-11-15T01:44:08.819Z,-2.4
2015-11-15T01:44:21.178Z,-2.3
2015-11-15T01:44:33.522Z,-2.25
2015-11-15T01:44:45.900Z,-2.3
2015-11-15T01:44:58.260Z,-2.25
2015-11-15T01:45:10.619Z,-2.3
2015-11-15T01:45:22.963Z,-2.28
2015-11-15T01:45:35.338Z,-2.27
2015-11-15T01:45:47.700Z,-2.3
2015-11-15T01:46:00.044Z,-2.28
2015-11-15T01:46:12.419Z,-2.24
2015-11-15T01:46:24.794Z,-2.32
2015-11-15T01:46:37.153Z,-2.28
2015-11-15T01:46:49.516Z,-2.24
2015-11-15T01:47:01.891Z,-2.28
2015-11-15T01:47:14.250Z,-2.27
2015-11-15T01:47:26.625Z,-2.2
2015-11-15T01:47:39.000Z,-2.2
2015-11-15T01:47:51.393Z,-2.15
2015-11-15T01:48:03.736Z,-2.21
2015-11-15T01:48:16.111Z,-2.15
2015-11-15T01:48:28.549Z,-2.23
2015-11-15T01:48:40.908Z,-2.14
2015-11-15T01:48:53.286Z,-2.24
2015-11-15T01:49:05.646Z,-2.09
2015-11-15T01:49:18.021Z,-2.14
2015-11-15T01:49:30.396Z,-2.12
2015-11-15T01:49:42.771Z,-2.09
2015-11-15T01:49:55.149Z,-2.12
2015-11-15T01:50:07.508Z,-2.09
2015-11-15T01:50:19.867Z,-2.1
2015-11-15T01:50:32.227Z,-2.06
2015-11-15T01:50:44.586Z,-2.09
2015-11-15T01:50:56.933Z,-2.09
2015-11-15T01:51:09.308Z,-2.07
2015-11-15T01:51:21.683Z,-2.12
2015-11-15T01:51:34.058Z,-2.06
2015-11-15T01:51:46.448Z,-2.06
2015-11-15T01:51:58.811Z,-2
2015-11-15T01:52:11.170Z,-2.07
2015-11-15T01:52:23.545Z,-2.06
2015-11-15T01:52:35.905Z,-2.05
2015-11-15T01:52:48.264Z,-2.09
2015-11-15T01:53:00.642Z,-2.06
2015-11-15T01:53:13.001Z,-1.97
2015-11-15T01:53:25.361Z,-2.03
2015-11-15T01:53:37.751Z,-2.02
2015-11-15T01:53:50.126Z,-2.02
2015-11-15T01:54:02.503Z,-1.97
2015-11-15T01:54:14.863Z,-1.99
2015-11-15T01:54:27.238Z,-2.05
2015-11-15T01:54:39.581Z,-2.02
2015-11-15T01:54:51.956Z,-2.03
2015-11-15T01:55:04.319Z,-1.94
2015-11-15T01:55:16.678Z,-1.96
2015-11-15T01:55:29.053Z,-1.94
2015-11-15T01:55:41.272Z,-1.91
2015-11-15T01:55:53.663Z,-1.89
2015-11-15T01:56:06.040Z,-1.97
2015-11-15T01:56:18.415Z,-1.88
2015-11-15T01:56:30.758Z,-1.91
2015-11-15T01:56:42.415Z,-1.84
2015-11-15T01:56:54.774Z,-1.88
2015-11-15T01:57:07.136Z,-1.82
2015-11-15T01:57:19.511Z,-1.78
2015-11-15T01:57:31.714Z,-1.89
2015-11-15T01:57:44.136Z,-1.81
2015-11-15T01:57:56.511Z,-1.79
2015-11-15T01:58:08.905Z,-1.84
2015-11-15T01:58:21.280Z,-1.74
2015-11-15T01:58:33.639Z,-1.73
2015-11-15T01:58:46.014Z,-1.74
2015-11-15T01:58:58.374Z,-1.79
2015-11-15T01:59:10.736Z,-1.71
2015-11-15T01:59:23.095Z,-1.67
2015-11-15T01:59:35.470Z,-1.58
2015-11-15T01:59:47.845Z,-1.67
2015-11-15T02:00:00.220Z,-1.66
2015-11-15T02:00:12.614Z,-1.64
2015-11-15T02:00:24.973Z,-1.66
2015-11-15T02:00:37.348Z,-1.66
2015-11-15T02:00:49.692Z,-1.67
2015-11-15T02:01:02.067Z,-1.6
2015-11-15T02:01:14.429Z,-1.55
2015-11-15T02:01:26.788Z,-1.63
2015-11-15T02:01:39.132Z,-1.6
2015-11-15T02:01:51.507Z,-1.49
2015-11-15T02:02:03.882Z,-1.63
2015-11-15T02:02:16.275Z,-1.5
2015-11-15T02:02:28.635Z,-1.5
2015-11-15T02:02:40.994Z,-1.53
2015-11-15T02:02:53.353Z,-1.52
2015-11-15T02:03:05.728Z,-1.48
2015-11-15T02:03:18.091Z,-1.48
2015-11-15T02:03:30.466Z,-1.52
2015-11-15T02:03:42.825Z,-1.53
2015-11-15T02:03:55.200Z,-1.48
2015-11-15T02:04:07.591Z,-1.45
2015-11-15T02:04:19.969Z,-1.45
2015-11-15T02:04:32.344Z,-1.46
2015-11-15T02:04:44.703Z,-1.46
2015-11-15T02:04:57.063Z,-1.48
2015-11-15T02:05:09.438Z,-1.48
2015-11-15T02:05:21.800Z,-1.4
2015-11-15T02:05:34.159Z,-1.5
2015-11-15T02:05:46.519Z,-1.49
2015-11-15T02:05:58.894Z,-1.48
2015-11-15T02:06:11.253Z,-1.53
2015-11-15T02:06:23.646Z,-1.48
2015-11-15T02:06:36.021Z,-1.5
2015-11-15T02:06:48.380Z,-1.49
2015-11-15T02:07:00.739Z,-1.42
2015-11-15T02:07:13.130Z,-1.45
2015-11-15T02:07:25.508Z,-1.43
2015-11-15T02:07:37.867Z,-1.42
2015-11-15T02:07:50.227Z,-1.45
2015-11-15T02:08:02.586Z,-1.43
2015-11-15T02:08:14.977Z,-1.35
2015-11-15T02:08:27.355Z,-1.35
2015-11-15T02:08:39.714Z,-1.32
2015-11-15T02:08:52.074Z,-1.34
2015-11-15T02:09:04.433Z,-1.27
2015-11-15T02:09:16.808Z,-1.32
2015-11-15T02:09:29.169Z,-1.24
2015-11-15T02:09:41.529Z,-1.24
2015-11-15T02:09:53.888Z,-1.25
2015-11-15T02:10:06.263Z,-1.27
2015-11-15T02:10:18.654Z,-1.31
2015-11-15T02:10:31.032Z,-1.28
2015-11-15T02:10:43.407Z,-1.28
2015-11-15T02:10:55.782Z,-1.34
2015-11-15T02:11:08.141Z,-1.32
2015-11-15T02:11:20.500Z,-1.28
2015-11-15T02:11:32.863Z,-1.31
2015-11-15T02:11:45.238Z,-1.37
2015-11-15T02:11:57.597Z,-1.35
2015-11-15T02:12:09.988Z,-1.34
2015-11-15T02:12:22.363Z,-1.42
2015-11-15T02:12:34.741Z,-1.49
2015-11-15T02:12:47.116Z,-1.43
2015-11-15T02:12:59.475Z,-1.35
2015-11-15T02:13:11.131Z,-1.48
2015-11-15T02:13:23.475Z,-1.43
2015-11-15T02:13:35.852Z,-1.49
2015-11-15T02:13:48.212Z,-1.48
2015-11-15T02:14:00.571Z,-1.45
2015-11-15T02:14:12.946Z,-1.46
2015-11-15T02:14:25.337Z,-1.35
2015-11-15T02:14:37.715Z,-1.37
2015-11-15T02:14:50.074Z,-1.45
2015-11-15T02:15:02.449Z,-1.37
2015-11-15T02:15:14.808Z,-1.35
2015-11-15T02:15:27.168Z,-1.37
2015-11-15T02:15:39.530Z,-1.34
2015-11-15T02:15:51.889Z,-1.4
2015-11-15T02:16:04.249Z,-1.34
2015-11-15T02:16:16.624Z,-1.35
2015-11-15T02:16:28.999Z,-1.35
2015-11-15T02:16:41.391Z,-1.35
2015-11-15T02:16:53.766Z,-1.38
2015-11-15T02:17:06.141Z,-1.37
2015-11-15T02:17:18.501Z,-1.35
2015-11-15T02:17:30.860Z,-1.42
2015-11-15T02:17:43.223Z,-1.37
2015-11-15T02:17:55.582Z,-1.27
2015-11-15T02:18:07.957Z,-1.32
2015-11-15T02:18:20.316Z,-1.3
2015-11-15T02:18:32.691Z,-1.24
2015-11-15T02:18:45.069Z,-1.27
2015-11-15T02:18:57.288Z,-1.3
2015-11-15T02:19:09.647Z,-1.3
2015-11-15T02:19:21.991Z,-1.27
2015-11-15T02:19:34.351Z,-1.28
2015-11-15T02:19:46.697Z,-1.28
2015-11-15T02:19:59.057Z,-1.24
2015-11-15T02:20:11.416Z,-1.31
2015-11-15T02:20:23.775Z,-1.28
2015-11-15T02:20:36.150Z,-1.24
2015-11-15T02:20:48.544Z,-1.17
2015-11-15T02:21:00.935Z,-1.3
2015-11-15T02:21:13.294Z,-1.21
2015-11-15T02:21:25.653Z,-1.21
2015-11-15T02:21:38.013Z,-1.22
2015-11-15T02:21:50.374Z,-1.28
2015-11-15T02:22:02.734Z,-1.24
2015-11-15T02:22:15.109Z,-1.21
2015-11-15T02:22:27.468Z,-1.28
2015-11-15T02:22:39.843Z,-1.14
2015-11-15T02:22:52.221Z,-1.14
2015-11-15T02:23:04.612Z,-1.16
2015-11-15T02:23:16.971Z,-1.16
2015-11-15T02:23:29.330Z,-1.28
2015-11-15T02:23:41.690Z,-1.17
2015-11-15T02:23:54.052Z,-1.19
2015-11-15T02:24:06.411Z,-1.19
2015-11-15T02:24:18.786Z,-1.16
2015-11-15T02:24:31.146Z,-1.1
2015-11-15T02:24:43.521Z,-1.11
2015-11-15T02:24:55.898Z,-1.13
2015-11-15T02:25:07.429Z,-1.11
2015-11-15T02:25:19.788Z,-1.16
2015-11-15T02:25:32.148Z,-1.1
2015-11-15T02:25:44.507Z,-1.1
2015-11-15T02:25:56.213Z,-1.03
2015-11-15T02:26:08.573Z,-1.11
2015-11-15T02:26:20.948Z,-1.03
2015-11-15T02:26:33.291Z,-1.04
2015-11-15T02:26:45.666Z,-1.11
2015-11-15T02:26:58.044Z,-0.99
2015-11-15T02:27:10.435Z,-0.99
2015-11-15T02:27:22.794Z,-1.1
2015-11-15T02:27:35.154Z,-0.96
2015-11-15T02:27:47.513Z,-1.04
2015-11-15T02:27:59.890Z,-1.01
2015-11-15T02:28:12.265Z,-1.06
2015-11-15T02:28:24.625Z,-1.11
2015-11-15T02:28:36.984Z,-1.07
2015-11-15T02:28:49.359Z,-1.09
2015-11-15T02:29:01.753Z,-1.13
2015-11-15T02:29:14.128Z,-1.03
2015-11-15T02:29:26.503Z,-1.13
2015-11-15T02:29:38.862Z,-0.99
2015-11-15T02:29:51.237Z,-1.14
2015-11-15T02:30:03.599Z,-0.98
2015-11-15T02:30:15.959Z,-0.99
2015-11-15T02:30:28.318Z,-1.13
2015-11-15T02:30:40.677Z,-0.96
2015-11-15T02:30:53.037Z,-0.99
2015-11-15T02:31:04.696Z,-1.04
2015-11-15T02:31:17.118Z,-0.98
2015-11-15T02:31:29.509Z,-1.04
2015-11-15T02:31:41.852Z,-0.93
2015-11-15T02:31:54.212Z,-1.04
2015-11-15T02:32:06.590Z,-0.98
2015-11-15T02:32:18.949Z,-1.04
2015-11-15T02:32:31.152Z,-1.06
2015-11-15T02:32:43.527Z,-1.01
2015-11-15T02:32:55.918Z,-1.13
2015-11-15T02:33:08.295Z,-0.96
2015-11-15T02:33:20.685Z,-1.01
2015-11-15T02:33:33.045Z,-1.09
2015-11-15T02:33:45.420Z,-1.14
2015-11-15T02:33:57.779Z,-1.11
2015-11-15T02:34:10.142Z,-1.06
2015-11-15T02:34:22.517Z,-1.13
2015-11-15T02:34:34.876Z,-1.16
2015-11-15T02:34:47.251Z,-1.11
2015-11-15T02:34:59.626Z,-1.06
2015-11-15T02:35:12.020Z,-1.1
2015-11-15T02:35:24.426Z,-1.06
2015-11-15T02:35:36.801Z,-1.1
2015-11-15T02:35:49.176Z,-1.1
2015-11-15T02:36:01.535Z,-1.13
2015-11-15T02:36:13.898Z,-1.11
2015-11-15T02:36:26.273Z,-1.09
2015-11-15T02:36:38.616Z,-1.14
2015-11-15T02:36:50.991Z,-1.06
2015-11-15T02:37:03.366Z,-1.1
2015-11-15T02:37:15.760Z,-1.16
2015-11-15T02:37:28.151Z,-1.14
2015-11-15T02:37:40.510Z,-1.17
2015-11-15T02:37:52.854Z,-1.17
2015-11-15T02:38:05.229Z,-1.28
2015-11-15T02:38:17.607Z,-1.25
2015-11-15T02:38:29.966Z,-1.25
2015-11-15T02:38:42.310Z,-1.27
2015-11-15T02:38:54.685Z,-1.27
2015-11-15T02:39:07.060Z,-1.27
2015-11-15T02:39:19.437Z,-1.22
2015-11-15T02:39:31.812Z,-1.27